sensor_id;sensor_type;location;lat;lon;timestamp;temperature;humidity
66861;SHT31;53770;42.334;23.550;2022-08-21T00:02:14;15.93;94.34
66861;SHT31;53770;42.334;23.550;2022-08-21T00:04:41;15.96;94.34
66861;SHT31;53770;42.334;23.550;2022-08-21T00:07:08;15.96;94.30
66861;SHT31;53770;42.334;23.550;2022-08-21T00:09:35;15.83;94.18
66861;SHT31;53770;42.334;23.550;2022-08-21T00:12:02;15.70;94.02
66861;SHT31;53770;42.334;23.550;2022-08-21T00:14:29;15.67;94.08
66861;SHT31;53770;42.334;23.550;2022-08-21T00:16:58;15.63;94.07
66861;SHT31;53770;42.334;23.550;2022-08-21T00:19:25;15.60;94.04
66861;SHT31;53770;42.334;23.550;2022-08-21T00:21:52;15.59;94.01
66861;SHT31;53770;42.334;23.550;2022-08-21T00:24:19;15.56;94.08
66861;SHT31;53770;42.334;23.550;2022-08-21T00:26:46;15.55;94.14
66861;SHT31;53770;42.334;23.550;2022-08-21T00:29:13;15.53;94.00
66861;SHT31;53770;42.334;23.550;2022-08-21T00:31:40;15.52;93.98
66861;SHT31;53770;42.334;23.550;2022-08-21T00:34:09;15.57;94.04
66861;SHT31;53770;42.334;23.550;2022-08-21T00:36:36;15.67;94.15
66861;SHT31;53770;42.334;23.550;2022-08-21T00:39:04;15.76;94.20
66861;SHT31;53770;42.334;23.550;2022-08-21T00:41:32;15.82;94.21
66861;SHT31;53770;42.334;23.550;2022-08-21T00:43:59;15.83;94.29
66861;SHT31;53770;42.334;23.550;2022-08-21T00:46:26;15.89;94.27
66861;SHT31;53770;42.334;23.550;2022-08-21T00:48:53;15.82;94.26
66861;SHT31;53770;42.334;23.550;2022-08-21T00:51:24;15.84;94.23
66861;SHT31;53770;42.334;23.550;2022-08-21T00:53:54;15.77;94.22
66861;SHT31;53770;42.334;23.550;2022-08-21T00:56:23;15.73;94.09
66861;SHT31;53770;42.334;23.550;2022-08-21T00:58:52;15.67;94.01
66861;SHT31;53770;42.334;23.550;2022-08-21T01:01:20;15.66;93.99
66861;SHT31;53770;42.334;23.550;2022-08-21T01:03:47;15.62;93.95
66861;SHT31;53770;42.334;23.550;2022-08-21T01:06:13;15.65;94.01
66861;SHT31;53770;42.334;23.550;2022-08-21T01:08:42;15.79;94.08
66861;SHT31;53770;42.334;23.550;2022-08-21T01:11:09;15.91;94.15
66861;SHT31;53770;42.334;23.550;2022-08-21T01:13:36;16.04;94.18
66861;SHT31;53770;42.334;23.550;2022-08-21T01:16:08;16.14;94.24
66861;SHT31;53770;42.334;23.550;2022-08-21T01:18:35;16.22;94.27
66861;SHT31;53770;42.334;23.550;2022-08-21T01:21:06;16.32;94.33
66861;SHT31;53770;42.334;23.550;2022-08-21T01:23:34;16.35;94.35
66861;SHT31;53770;42.334;23.550;2022-08-21T01:26:01;16.32;94.36
66861;SHT31;53770;42.334;23.550;2022-08-21T01:28:31;16.24;94.38
66861;SHT31;53770;42.334;23.550;2022-08-21T01:31:00;16.11;94.29
66861;SHT31;53770;42.334;23.550;2022-08-21T01:33:27;16.13;94.31
66861;SHT31;53770;42.334;23.550;2022-08-21T01:35:54;16.17;94.22
66861;SHT31;53770;42.334;23.550;2022-08-21T01:38:23;16.17;94.21
66861;SHT31;53770;42.334;23.550;2022-08-21T01:40:49;16.14;94.19
66861;SHT31;53770;42.334;23.550;2022-08-21T01:43:16;16.11;94.15
66861;SHT31;53770;42.334;23.550;2022-08-21T01:45:43;16.10;94.17
66861;SHT31;53770;42.334;23.550;2022-08-21T01:48:10;16.18;94.19
66861;SHT31;53770;42.334;23.550;2022-08-21T01:50:37;16.20;94.23
66861;SHT31;53770;42.334;23.550;2022-08-21T01:53:04;16.14;94.16
66861;SHT31;53770;42.334;23.550;2022-08-21T01:55:32;16.17;94.08
66861;SHT31;53770;42.334;23.550;2022-08-21T01:57:59;16.21;94.11
66861;SHT31;53770;42.334;23.550;2022-08-21T02:00:26;16.18;94.05
66861;SHT31;53770;42.334;23.550;2022-08-21T02:02:53;16.15;94.04
66861;SHT31;53770;42.334;23.550;2022-08-21T02:05:20;16.13;94.00
66861;SHT31;53770;42.334;23.550;2022-08-21T02:07:48;15.86;93.81
66861;SHT31;53770;42.334;23.550;2022-08-21T02:10:21;15.83;93.91
66861;SHT31;53770;42.334;23.550;2022-08-21T02:12:49;15.84;93.97
66861;SHT31;53770;42.334;23.550;2022-08-21T02:15:16;15.82;94.00
66861;SHT31;53770;42.334;23.550;2022-08-21T02:17:47;15.86;94.01
66861;SHT31;53770;42.334;23.550;2022-08-21T02:20:16;15.87;94.07
66861;SHT31;53770;42.334;23.550;2022-08-21T02:22:43;15.83;94.05
66861;SHT31;53770;42.334;23.550;2022-08-21T02:25:11;15.77;94.02
66861;SHT31;53770;42.334;23.550;2022-08-21T02:27:39;15.84;94.09
66861;SHT31;53770;42.334;23.550;2022-08-21T02:30:10;15.89;94.08
66861;SHT31;53770;42.334;23.550;2022-08-21T02:32:38;15.93;94.11
66861;SHT31;53770;42.334;23.550;2022-08-21T02:35:05;16.00;94.18
66861;SHT31;53770;42.334;23.550;2022-08-21T02:37:32;16.05;94.19
66861;SHT31;53770;42.334;23.550;2022-08-21T02:39:59;16.04;94.14
66861;SHT31;53770;42.334;23.550;2022-08-21T02:42:26;16.05;94.19
66861;SHT31;53770;42.334;23.550;2022-08-21T02:44:53;15.94;94.16
66861;SHT31;53770;42.334;23.550;2022-08-21T02:47:22;15.83;93.99
66861;SHT31;53770;42.334;23.550;2022-08-21T02:49:48;15.87;93.95
66861;SHT31;53770;42.334;23.550;2022-08-21T02:52:15;15.94;94.03
66861;SHT31;53770;42.334;23.550;2022-08-21T02:54:42;16.05;94.11
66861;SHT31;53770;42.334;23.550;2022-08-21T02:57:09;16.03;94.06
66861;SHT31;53770;42.334;23.550;2022-08-21T02:59:35;16.05;94.17
66861;SHT31;53770;42.334;23.550;2022-08-21T03:02:02;16.11;94.17
66861;SHT31;53770;42.334;23.550;2022-08-21T03:04:31;16.14;94.18
66861;SHT31;53770;42.334;23.550;2022-08-21T03:06:57;16.17;94.18
66861;SHT31;53770;42.334;23.550;2022-08-21T03:09:25;16.18;94.17
66861;SHT31;53770;42.334;23.550;2022-08-21T03:11:51;16.14;94.14
66861;SHT31;53770;42.334;23.550;2022-08-21T03:14:19;16.13;94.12
66861;SHT31;53770;42.334;23.550;2022-08-21T03:16:45;16.10;94.13
66861;SHT31;53770;42.334;23.550;2022-08-21T03:19:12;16.05;94.07
66861;SHT31;53770;42.334;23.550;2022-08-21T03:21:40;16.05;94.02
66861;SHT31;53770;42.334;23.550;2022-08-21T03:24:07;16.03;93.96
66861;SHT31;53770;42.334;23.550;2022-08-21T03:26:34;16.01;93.98
66861;SHT31;53770;42.334;23.550;2022-08-21T03:29:01;16.04;94.00
66861;SHT31;53770;42.334;23.550;2022-08-21T03:31:28;16.04;94.00
66861;SHT31;53770;42.334;23.550;2022-08-21T03:33:56;16.07;94.00
66861;SHT31;53770;42.334;23.550;2022-08-21T03:36:24;16.08;94.05
66861;SHT31;53770;42.334;23.550;2022-08-21T03:38:52;16.04;94.02
66861;SHT31;53770;42.334;23.550;2022-08-21T03:41:19;16.04;93.98
66861;SHT31;53770;42.334;23.550;2022-08-21T03:43:46;16.05;94.04
66861;SHT31;53770;42.334;23.550;2022-08-21T03:46:13;16.14;94.09
66861;SHT31;53770;42.334;23.550;2022-08-21T03:48:40;16.15;94.10
66861;SHT31;53770;42.334;23.550;2022-08-21T03:51:07;16.18;94.10
66861;SHT31;53770;42.334;23.550;2022-08-21T03:53:33;16.15;94.08
66861;SHT31;53770;42.334;23.550;2022-08-21T03:56:03;16.15;94.04
66861;SHT31;53770;42.334;23.550;2022-08-21T03:58:31;16.14;94.03
66861;SHT31;53770;42.334;23.550;2022-08-21T04:01:00;16.08;94.00
66861;SHT31;53770;42.334;23.550;2022-08-21T04:03:28;16.10;93.96
66861;SHT31;53770;42.334;23.550;2022-08-21T04:05:55;16.08;93.97
66861;SHT31;53770;42.334;23.550;2022-08-21T04:08:22;16.04;93.93
66861;SHT31;53770;42.334;23.550;2022-08-21T04:10:51;16.08;93.97
66861;SHT31;53770;42.334;23.550;2022-08-21T04:13:20;16.08;93.96
66861;SHT31;53770;42.334;23.550;2022-08-21T04:15:47;16.11;94.00
66861;SHT31;53770;42.334;23.550;2022-08-21T04:18:14;16.18;94.03
66861;SHT31;53770;42.334;23.550;2022-08-21T04:20:43;16.24;94.03
66861;SHT31;53770;42.334;23.550;2022-08-21T04:23:10;16.26;94.05
66861;SHT31;53770;42.334;23.550;2022-08-21T04:25:37;16.29;94.02
66861;SHT31;53770;42.334;23.550;2022-08-21T04:28:04;16.21;93.96
66861;SHT31;53770;42.334;23.550;2022-08-21T04:30:32;16.21;94.03
66861;SHT31;53770;42.334;23.550;2022-08-21T04:32:59;16.21;93.97
66861;SHT31;53770;42.334;23.550;2022-08-21T04:35:27;16.24;93.98
66861;SHT31;53770;42.334;23.550;2022-08-21T04:37:55;16.14;93.95
66861;SHT31;53770;42.334;23.550;2022-08-21T04:40:25;15.97;93.70
66861;SHT31;53770;42.334;23.550;2022-08-21T04:42:54;15.93;93.58
66861;SHT31;53770;42.334;23.550;2022-08-21T04:45:23;15.94;93.58
66861;SHT31;53770;42.334;23.550;2022-08-21T04:47:53;15.97;93.63
66861;SHT31;53770;42.334;23.550;2022-08-21T04:50:22;16.03;93.63
66861;SHT31;53770;42.334;23.550;2022-08-21T04:52:50;16.07;93.69
66861;SHT31;53770;42.334;23.550;2022-08-21T04:55:18;16.20;93.76
66861;SHT31;53770;42.334;23.550;2022-08-21T04:57:46;16.28;93.77
66861;SHT31;53770;42.334;23.550;2022-08-21T05:00:14;16.36;93.77
66861;SHT31;53770;42.334;23.550;2022-08-21T05:02:43;16.36;93.72
66861;SHT31;53770;42.334;23.550;2022-08-21T05:05:12;16.44;93.80
66861;SHT31;53770;42.334;23.550;2022-08-21T05:07:40;16.52;93.84
66861;SHT31;53770;42.334;23.550;2022-08-21T05:10:08;16.59;93.82
66861;SHT31;53770;42.334;23.550;2022-08-21T05:12:35;16.68;93.83
66861;SHT31;53770;42.334;23.550;2022-08-21T05:15:03;16.76;93.87
66861;SHT31;53770;42.334;23.550;2022-08-21T05:17:30;16.89;93.94
66861;SHT31;53770;42.334;23.550;2022-08-21T05:19:57;17.03;93.94
66861;SHT31;53770;42.334;23.550;2022-08-21T05:22:25;17.10;93.92
66861;SHT31;53770;42.334;23.550;2022-08-21T05:24:52;17.10;93.75
66861;SHT31;53770;42.334;23.550;2022-08-21T05:27:18;17.14;93.80
66861;SHT31;53770;42.334;23.550;2022-08-21T05:29:45;17.18;93.76
66861;SHT31;53770;42.334;23.550;2022-08-21T05:32:13;17.16;93.69
66861;SHT31;53770;42.334;23.550;2022-08-21T05:34:40;17.00;93.23
66861;SHT31;53770;42.334;23.550;2022-08-21T05:37:10;17.00;93.19
66861;SHT31;53770;42.334;23.550;2022-08-21T05:39:38;17.08;93.27
66861;SHT31;53770;42.334;23.550;2022-08-21T05:42:05;17.18;93.35
66861;SHT31;53770;42.334;23.550;2022-08-21T05:44:32;17.31;93.54
66861;SHT31;53770;42.334;23.550;2022-08-21T05:47:03;17.49;93.63
66861;SHT31;53770;42.334;23.550;2022-08-21T05:49:30;17.65;93.64
66861;SHT31;53770;42.334;23.550;2022-08-21T05:51:57;17.59;93.40
66861;SHT31;53770;42.334;23.550;2022-08-21T05:54:23;17.52;93.22
66861;SHT31;53770;42.334;23.550;2022-08-21T05:56:52;17.56;93.20
66861;SHT31;53770;42.334;23.550;2022-08-21T05:59:18;17.64;93.34
66861;SHT31;53770;42.334;23.550;2022-08-21T06:01:45;17.73;93.05
66861;SHT31;53770;42.334;23.550;2022-08-21T06:04:13;17.72;93.06
66861;SHT31;53770;42.334;23.550;2022-08-21T06:06:39;17.68;93.05
66861;SHT31;53770;42.334;23.550;2022-08-21T06:09:06;17.62;92.96
66861;SHT31;53770;42.334;23.550;2022-08-21T06:11:33;17.72;92.85
66861;SHT31;53770;42.334;23.550;2022-08-21T06:14:02;17.90;93.04
66861;SHT31;53770;42.334;23.550;2022-08-21T06:16:29;18.06;93.22
66861;SHT31;53770;42.334;23.550;2022-08-21T06:18:56;17.85;92.85
66861;SHT31;53770;42.334;23.550;2022-08-21T06:21:23;17.72;92.33
66861;SHT31;53770;42.334;23.550;2022-08-21T06:23:50;17.87;92.64
66861;SHT31;53770;42.334;23.550;2022-08-21T06:26:16;18.10;93.02
66861;SHT31;53770;42.334;23.550;2022-08-21T06:28:43;18.27;93.22
66861;SHT31;53770;42.334;23.550;2022-08-21T06:31:13;18.40;93.31
66861;SHT31;53770;42.334;23.550;2022-08-21T06:33:40;18.45;93.34
66861;SHT31;53770;42.334;23.550;2022-08-21T06:36:07;18.49;93.23
66861;SHT31;53770;42.334;23.550;2022-08-21T06:38:35;18.54;93.08
66861;SHT31;53770;42.334;23.550;2022-08-21T06:41:02;18.65;93.14
66861;SHT31;53770;42.334;23.550;2022-08-21T06:43:28;18.72;93.24
66861;SHT31;53770;42.334;23.550;2022-08-21T06:45:56;18.79;93.31
66861;SHT31;53770;42.334;23.550;2022-08-21T06:48:24;18.81;93.23
66861;SHT31;53770;42.334;23.550;2022-08-21T06:50:51;18.86;93.26
66861;SHT31;53770;42.334;23.550;2022-08-21T06:53:19;18.98;93.30
66861;SHT31;53770;42.334;23.550;2022-08-21T06:55:47;19.02;93.15
66861;SHT31;53770;42.334;23.550;2022-08-21T06:58:14;19.16;93.21
66861;SHT31;53770;42.334;23.550;2022-08-21T07:00:44;19.30;93.33
66861;SHT31;53770;42.334;23.550;2022-08-21T07:03:17;19.33;93.26
66861;SHT31;53770;42.334;23.550;2022-08-21T07:05:45;19.35;93.19
66861;SHT31;53770;42.334;23.550;2022-08-21T07:08:12;19.34;93.13
66861;SHT31;53770;42.334;23.550;2022-08-21T07:10:39;19.40;93.16
66861;SHT31;53770;42.334;23.550;2022-08-21T07:13:06;19.35;92.97
66861;SHT31;53770;42.334;23.550;2022-08-21T07:15:33;19.40;93.00
66861;SHT31;53770;42.334;23.550;2022-08-21T07:18:00;19.44;93.11
66861;SHT31;53770;42.334;23.550;2022-08-21T07:20:27;19.50;93.08
66861;SHT31;53770;42.334;23.550;2022-08-21T07:22:56;19.57;93.15
66861;SHT31;53770;42.334;23.550;2022-08-21T07:25:24;19.62;93.09
66861;SHT31;53770;42.334;23.550;2022-08-21T07:27:50;19.70;93.18
66861;SHT31;53770;42.334;23.550;2022-08-21T07:30:17;19.74;92.94
66861;SHT31;53770;42.334;23.550;2022-08-21T07:32:44;19.83;92.95
66861;SHT31;53770;42.334;23.550;2022-08-21T07:35:12;19.91;93.04
66861;SHT31;53770;42.334;23.550;2022-08-21T07:37:39;19.95;93.07
66861;SHT31;53770;42.334;23.550;2022-08-21T07:40:08;19.98;93.03
66861;SHT31;53770;42.334;23.550;2022-08-21T07:42:39;20.06;93.02
66861;SHT31;53770;42.334;23.550;2022-08-21T07:45:07;20.10;92.97
66861;SHT31;53770;42.334;23.550;2022-08-21T07:47:34;20.15;93.02
66861;SHT31;53770;42.334;23.550;2022-08-21T07:50:02;20.18;93.02
66861;SHT31;53770;42.334;23.550;2022-08-21T07:52:29;20.13;92.94
66861;SHT31;53770;42.334;23.550;2022-08-21T07:54:55;20.00;92.63
66861;SHT31;53770;42.334;23.550;2022-08-21T07:57:24;19.92;92.48
66861;SHT31;53770;42.334;23.550;2022-08-21T07:59:50;19.92;92.39
66861;SHT31;53770;42.334;23.550;2022-08-21T08:02:22;19.91;91.99
66861;SHT31;53770;42.334;23.550;2022-08-21T08:04:49;20.04;91.61
66861;SHT31;53770;42.334;23.550;2022-08-21T08:07:17;20.39;92.13
66861;SHT31;53770;42.334;23.550;2022-08-21T08:09:44;20.74;92.20
66861;SHT31;53770;42.334;23.550;2022-08-21T08:12:11;21.09;92.45
66861;SHT31;53770;42.334;23.550;2022-08-21T08:14:39;21.29;92.39
66861;SHT31;53770;42.334;23.550;2022-08-21T08:17:06;21.49;92.23
66861;SHT31;53770;42.334;23.550;2022-08-21T08:19:32;21.81;92.32
66861;SHT31;53770;42.334;23.550;2022-08-21T08:21:59;21.88;91.44
66861;SHT31;53770;42.334;23.550;2022-08-21T08:24:26;22.25;91.75
66861;SHT31;53770;42.334;23.550;2022-08-21T08:26:53;22.67;91.95
66861;SHT31;53770;42.334;23.550;2022-08-21T08:29:22;23.01;91.82
66861;SHT31;53770;42.334;23.550;2022-08-21T08:31:50;23.51;91.99
66861;SHT31;53770;42.334;23.550;2022-08-21T08:34:17;23.80;91.95
66861;SHT31;53770;42.334;23.550;2022-08-21T08:36:45;23.99;91.68
66861;SHT31;53770;42.334;23.550;2022-08-21T08:39:11;24.17;91.40
66861;SHT31;53770;42.334;23.550;2022-08-21T08:41:39;24.14;90.80
66861;SHT31;53770;42.334;23.550;2022-08-21T08:44:07;24.17;90.91
66861;SHT31;53770;42.334;23.550;2022-08-21T08:46:38;23.87;87.95
66861;SHT31;53770;42.334;23.550;2022-08-21T08:49:11;23.84;89.45
66861;SHT31;53770;42.334;23.550;2022-08-21T08:51:46;23.87;89.28
66861;SHT31;53770;42.334;23.550;2022-08-21T08:54:17;24.00;89.22
66861;SHT31;53770;42.334;23.550;2022-08-21T08:56:45;24.09;89.79
66861;SHT31;53770;42.334;23.550;2022-08-21T08:59:15;23.89;88.29
66861;SHT31;53770;42.334;23.550;2022-08-21T09:01:44;23.93;89.29
66861;SHT31;53770;42.334;23.550;2022-08-21T09:04:13;23.97;89.00
66861;SHT31;53770;42.334;23.550;2022-08-21T09:06:53;23.93;89.24
66861;SHT31;53770;42.334;23.550;2022-08-21T09:09:31;23.67;88.69
66861;SHT31;53770;42.334;23.550;2022-08-21T09:12:04;23.38;89.28
66861;SHT31;53770;42.334;23.550;2022-08-21T09:14:50;23.07;89.29
66861;SHT31;53770;42.334;23.550;2022-08-21T09:17:30;22.69;88.13
66861;SHT31;53770;42.334;23.550;2022-08-21T09:20:16;22.41;88.47
66861;SHT31;53770;42.334;23.550;2022-08-21T09:22:56;22.18;89.09
66861;SHT31;53770;42.334;23.550;2022-08-21T09:25:27;22.05;89.98
66861;SHT31;53770;42.334;23.550;2022-08-21T09:27:54;21.90;89.77
66861;SHT31;53770;42.334;23.550;2022-08-21T09:30:25;21.76;89.34
66861;SHT31;53770;42.334;23.550;2022-08-21T09:32:53;21.66;89.45
66861;SHT31;53770;42.334;23.550;2022-08-21T09:35:22;21.61;89.77
66861;SHT31;53770;42.334;23.550;2022-08-21T09:37:53;21.67;90.07
66861;SHT31;53770;42.334;23.550;2022-08-21T09:40:29;21.59;88.93
66861;SHT31;53770;42.334;23.550;2022-08-21T09:42:58;21.67;90.14
66861;SHT31;53770;42.334;23.550;2022-08-21T09:45:25;21.77;90.32
66861;SHT31;53770;42.334;23.550;2022-08-21T09:47:52;21.81;90.37
66861;SHT31;53770;42.334;23.550;2022-08-21T09:50:23;21.83;89.37
66861;SHT31;53770;42.334;23.550;2022-08-21T09:52:53;21.80;89.09
66861;SHT31;53770;42.334;23.550;2022-08-21T09:55:30;21.83;89.50
66861;SHT31;53770;42.334;23.550;2022-08-21T09:58:15;21.93;90.07
66861;SHT31;53770;42.334;23.550;2022-08-21T10:00:43;21.97;89.56
66861;SHT31;53770;42.334;23.550;2022-08-21T10:03:13;22.11;89.09
66861;SHT31;53770;42.334;23.550;2022-08-21T10:05:54;22.32;88.45
66861;SHT31;53770;42.334;23.550;2022-08-21T10:08:23;22.86;86.68
66861;SHT31;53770;42.334;23.550;2022-08-21T10:10:54;23.49;86.03
66861;SHT31;53770;42.334;23.550;2022-08-21T10:13:28;23.96;83.45
66861;SHT31;53770;42.334;23.550;2022-08-21T10:16:07;24.45;85.35
66861;SHT31;53770;42.334;23.550;2022-08-21T10:18:42;24.93;84.61
66861;SHT31;53770;42.334;23.550;2022-08-21T10:21:17;25.23;82.95
66861;SHT31;53770;42.334;23.550;2022-08-21T10:23:58;25.41;79.22
66861;SHT31;53770;42.334;23.550;2022-08-21T10:26:36;25.65;81.20
66861;SHT31;53770;42.334;23.550;2022-08-21T10:29:14;25.95;78.79
66861;SHT31;53770;42.334;23.550;2022-08-21T10:31:52;25.92;81.67
66861;SHT31;53770;42.334;23.550;2022-08-21T10:34:31;25.58;80.68
66861;SHT31;53770;42.334;23.550;2022-08-21T10:37:12;25.23;81.05
66861;SHT31;53770;42.334;23.550;2022-08-21T10:39:50;25.07;80.72
66861;SHT31;53770;42.334;23.550;2022-08-21T10:42:28;24.86;76.88
66861;SHT31;53770;42.334;23.550;2022-08-21T10:45:06;24.67;78.99
66861;SHT31;53770;42.334;23.550;2022-08-21T10:47:41;24.47;80.60
66861;SHT31;53770;42.334;23.550;2022-08-21T10:50:13;24.24;80.72
66861;SHT31;53770;42.334;23.550;2022-08-21T10:52:59;23.96;82.08
66861;SHT31;53770;42.334;23.550;2022-08-21T10:55:32;23.41;82.93
66861;SHT31;53770;42.334;23.550;2022-08-21T10:58:05;22.91;82.61
66861;SHT31;53770;42.334;23.550;2022-08-21T11:00:40;22.53;83.74
66861;SHT31;53770;42.334;23.550;2022-08-21T11:03:13;22.11;84.13
66861;SHT31;53770;42.334;23.550;2022-08-21T11:05:42;22.02;86.17
66861;SHT31;53770;42.334;23.550;2022-08-21T11:08:15;22.01;84.91
66861;SHT31;53770;42.334;23.550;2022-08-21T11:10:47;22.02;85.33
66861;SHT31;53770;42.334;23.550;2022-08-21T11:13:19;22.12;85.55
66861;SHT31;53770;42.334;23.550;2022-08-21T11:15:53;22.26;86.26
66861;SHT31;53770;42.334;23.550;2022-08-21T11:18:24;22.48;86.44
66861;SHT31;53770;42.334;23.550;2022-08-21T11:21:01;22.80;85.61
66861;SHT31;53770;42.334;23.550;2022-08-21T11:23:38;23.22;84.67
66861;SHT31;53770;42.334;23.550;2022-08-21T11:26:09;23.42;84.85
66861;SHT31;53770;42.334;23.550;2022-08-21T11:28:43;23.56;85.33
66861;SHT31;53770;42.334;23.550;2022-08-21T11:31:22;23.59;83.59
66861;SHT31;53770;42.334;23.550;2022-08-21T11:33:59;23.51;83.14
66861;SHT31;53770;42.334;23.550;2022-08-21T11:36:34;23.31;84.22
66861;SHT31;53770;42.334;23.550;2022-08-21T11:39:14;23.12;83.88
66861;SHT31;53770;42.334;23.550;2022-08-21T11:41:47;22.99;84.80
66861;SHT31;53770;42.334;23.550;2022-08-21T11:44:20;22.84;85.19
66861;SHT31;53770;42.334;23.550;2022-08-21T11:46:57;22.66;84.81
66861;SHT31;53770;42.334;23.550;2022-08-21T11:49:42;22.53;85.46
66861;SHT31;53770;42.334;23.550;2022-08-21T11:52:16;22.31;85.24
66861;SHT31;53770;42.334;23.550;2022-08-21T11:54:52;22.14;85.23
66861;SHT31;53770;42.334;23.550;2022-08-21T11:57:26;21.97;85.86
66861;SHT31;53770;42.334;23.550;2022-08-21T11:59:58;21.66;78.04
66861;SHT31;53770;42.334;23.550;2022-08-21T12:02:29;21.47;84.23
66861;SHT31;53770;42.334;23.550;2022-08-21T12:05:00;21.39;84.80
66861;SHT31;53770;42.334;23.550;2022-08-21T12:07:32;21.38;85.79
66861;SHT31;53770;42.334;23.550;2022-08-21T12:10:02;21.30;86.32
66861;SHT31;53770;42.334;23.550;2022-08-21T12:12:31;21.19;87.11
66861;SHT31;53770;42.334;23.550;2022-08-21T12:15:17;21.16;87.69
66861;SHT31;53770;42.334;23.550;2022-08-21T12:17:56;21.06;86.59
66861;SHT31;53770;42.334;23.550;2022-08-21T12:20:34;21.02;87.37
66861;SHT31;53770;42.334;23.550;2022-08-21T12:23:06;21.02;87.95
66861;SHT31;53770;42.334;23.550;2022-08-21T12:25:44;21.05;88.17
66861;SHT31;53770;42.334;23.550;2022-08-21T12:28:13;21.02;88.09
66861;SHT31;53770;42.334;23.550;2022-08-21T12:30:43;20.98;87.71
66861;SHT31;53770;42.334;23.550;2022-08-21T12:33:23;20.96;87.58
66861;SHT31;53770;42.334;23.550;2022-08-21T12:36:00;20.91;87.55
66861;SHT31;53770;42.334;23.550;2022-08-21T12:38:29;20.88;87.79
66861;SHT31;53770;42.334;23.550;2022-08-21T12:41:02;20.81;87.85
66861;SHT31;53770;42.334;23.550;2022-08-21T12:43:34;20.80;88.12
66861;SHT31;53770;42.334;23.550;2022-08-21T12:46:03;20.78;88.46
66861;SHT31;53770;42.334;23.550;2022-08-21T12:48:33;20.68;86.87
66861;SHT31;53770;42.334;23.550;2022-08-21T12:51:08;20.64;87.89
66861;SHT31;53770;42.334;23.550;2022-08-21T12:53:41;20.63;88.44
66861;SHT31;53770;42.334;23.550;2022-08-21T12:56:13;20.60;88.94
66861;SHT31;53770;42.334;23.550;2022-08-21T12:58:44;20.53;88.95
66861;SHT31;53770;42.334;23.550;2022-08-21T13:01:18;20.47;88.92
66861;SHT31;53770;42.334;23.550;2022-08-21T13:03:46;20.47;89.39
66861;SHT31;53770;42.334;23.550;2022-08-21T13:06:15;20.48;89.69
66861;SHT31;53770;42.334;23.550;2022-08-21T13:08:43;20.43;88.96
66861;SHT31;53770;42.334;23.550;2022-08-21T13:11:15;20.16;86.07
66861;SHT31;53770;42.334;23.550;2022-08-21T13:13:47;19.86;87.11
66861;SHT31;53770;42.334;23.550;2022-08-21T13:16:19;19.57;88.11
66861;SHT31;53770;42.334;23.550;2022-08-21T13:18:54;19.22;88.41
66861;SHT31;53770;42.334;23.550;2022-08-21T13:21:21;19.09;89.59
66861;SHT31;53770;42.334;23.550;2022-08-21T13:23:47;18.95;88.89
66861;SHT31;53770;42.334;23.550;2022-08-21T13:26:18;18.67;88.34
66861;SHT31;53770;42.334;23.550;2022-08-21T13:28:46;18.51;89.34
66861;SHT31;53770;42.334;23.550;2022-08-21T13:31:17;18.55;90.44
66861;SHT31;53770;42.334;23.550;2022-08-21T13:33:44;18.75;91.11
66861;SHT31;53770;42.334;23.550;2022-08-21T13:36:17;18.91;91.48
66861;SHT31;53770;42.334;23.550;2022-08-21T13:38:45;18.89;90.87
66861;SHT31;53770;42.334;23.550;2022-08-21T13:41:24;18.81;90.68
66861;SHT31;53770;42.334;23.550;2022-08-21T13:43:58;18.73;90.60
66861;SHT31;53770;42.334;23.550;2022-08-21T13:46:30;18.78;91.06
66861;SHT31;53770;42.334;23.550;2022-08-21T13:48:59;18.73;91.00
66861;SHT31;53770;42.334;23.550;2022-08-21T13:51:27;18.84;91.32
66861;SHT31;53770;42.334;23.550;2022-08-21T13:53:54;18.75;90.63
66861;SHT31;53770;42.334;23.550;2022-08-21T13:56:24;18.69;90.44
66861;SHT31;53770;42.334;23.550;2022-08-21T13:58:52;18.68;90.42
66861;SHT31;53770;42.334;23.550;2022-08-21T14:01:23;18.61;90.37
66861;SHT31;53770;42.334;23.550;2022-08-21T14:03:55;18.57;90.17
66861;SHT31;53770;42.334;23.550;2022-08-21T14:06:26;18.65;90.79
66861;SHT31;53770;42.334;23.550;2022-08-21T14:08:55;18.55;90.15
66861;SHT31;53770;42.334;23.550;2022-08-21T14:11:25;18.45;89.91
66861;SHT31;53770;42.334;23.550;2022-08-21T14:13:58;18.38;89.31
66861;SHT31;53770;42.334;23.550;2022-08-21T14:16:28;18.38;89.85
66861;SHT31;53770;42.334;23.550;2022-08-21T14:19:09;18.38;89.64
66861;SHT31;53770;42.334;23.550;2022-08-21T14:21:39;18.45;90.13
66861;SHT31;53770;42.334;23.550;2022-08-21T14:24:09;18.55;90.31
66861;SHT31;53770;42.334;23.550;2022-08-21T14:26:44;18.78;90.77
66861;SHT31;53770;42.334;23.550;2022-08-21T14:29:14;19.03;90.98
66861;SHT31;53770;42.334;23.550;2022-08-21T14:31:42;19.28;91.12
66861;SHT31;53770;42.334;23.550;2022-08-21T14:34:11;19.49;91.12
66861;SHT31;53770;42.334;23.550;2022-08-21T14:36:39;19.67;91.13
66861;SHT31;53770;42.334;23.550;2022-08-21T14:39:06;19.74;90.91
66861;SHT31;53770;42.334;23.550;2022-08-21T14:41:33;19.85;91.02
66861;SHT31;53770;42.334;23.550;2022-08-21T14:44:01;19.93;91.20
66861;SHT31;53770;42.334;23.550;2022-08-21T14:46:30;20.08;91.20
66861;SHT31;53770;42.334;23.550;2022-08-21T14:48:57;20.15;91.14
66861;SHT31;53770;42.334;23.550;2022-08-21T14:51:24;20.19;91.06
66861;SHT31;53770;42.334;23.550;2022-08-21T14:53:51;20.20;90.91
66861;SHT31;53770;42.334;23.550;2022-08-21T14:56:18;20.22;90.96
66861;SHT31;53770;42.334;23.550;2022-08-21T14:58:46;20.30;91.05
66861;SHT31;53770;42.334;23.550;2022-08-21T15:01:17;20.30;91.05
66861;SHT31;53770;42.334;23.550;2022-08-21T15:03:45;20.29;90.97
66861;SHT31;53770;42.334;23.550;2022-08-21T15:06:14;20.26;90.77
66861;SHT31;53770;42.334;23.550;2022-08-21T15:08:41;20.16;90.46
66861;SHT31;53770;42.334;23.550;2022-08-21T15:11:11;20.09;90.40
66861;SHT31;53770;42.334;23.550;2022-08-21T15:13:39;20.05;90.36
66861;SHT31;53770;42.334;23.550;2022-08-21T15:16:08;19.82;88.56
66861;SHT31;53770;42.334;23.550;2022-08-21T15:18:38;19.67;89.15
66861;SHT31;53770;42.334;23.550;2022-08-21T15:21:05;19.55;89.19
66861;SHT31;53770;42.334;23.550;2022-08-21T15:23:32;19.49;89.40
66861;SHT31;53770;42.334;23.550;2022-08-21T15:25:59;19.51;89.72
66861;SHT31;53770;42.334;23.550;2022-08-21T15:28:25;19.55;90.06
66861;SHT31;53770;42.334;23.550;2022-08-21T15:30:52;19.64;90.21